createdAt,value
2018-12-24T00:01:14.515Z,101516.74
2018-12-24T00:04:17.953Z,101516.16
2018-12-24T00:07:21.333Z,101516.70
2018-12-24T00:10:24.721Z,101505.98
2018-12-24T00:13:28.162Z,101508.85
2018-12-24T00:16:31.529Z,101504.72
2018-12-24T00:19:35.396Z,101501.79
2018-12-24T00:22:38.519Z,101506.47
2018-12-24T00:25:42.057Z,101512.35
2018-12-24T00:28:45.532Z,101525.55
2018-12-24T00:31:49.125Z,101521.53
2018-12-24T00:34:52.739Z,101531.05
2018-12-24T00:37:56.274Z,101520.19
2018-12-24T00:40:59.766Z,101530.81
2018-12-24T00:44:03.349Z,101519.78
2018-12-24T00:47:06.832Z,101532.76
2018-12-24T00:50:10.331Z,101528.90
2018-12-24T00:53:13.853Z,101519.20
2018-12-24T00:56:20.012Z,101519.14
2018-12-24T00:59:24.149Z,101520.76
2018-12-24T01:02:28.753Z,101529.42
2018-12-24T01:05:32.439Z,101587.44
2018-12-24T01:08:35.901Z,101649.20
2018-12-24T01:11:39.508Z,101702.76
2018-12-24T01:14:42.964Z,101760.35
2018-12-24T01:17:46.378Z,101730.19
2018-12-24T01:20:49.944Z,101737.13
2018-12-24T01:23:53.473Z,101725.39
2018-12-24T01:26:57.076Z,101745.55
2018-12-24T01:30:00.501Z,101737.84
2018-12-24T01:33:04.104Z,101757.60
2018-12-24T01:36:07.698Z,101763.22
2018-12-24T01:39:11.327Z,101773.61
2018-12-24T01:42:14.811Z,101797.50
2018-12-24T01:45:18.418Z,101805.08
2018-12-24T01:48:22.008Z,101816.90
2018-12-24T01:51:25.617Z,101827.36
2018-12-24T01:54:29.239Z,101831.21
2018-12-24T01:57:32.724Z,101836.46
2018-12-24T02:00:36.329Z,101834.79
2018-12-24T02:03:39.939Z,101844.83
2018-12-24T02:06:43.473Z,101853.51
2018-12-24T02:09:47.039Z,101874.93
2018-12-24T02:12:50.534Z,101878.94
2018-12-24T02:15:54.084Z,101887.46
2018-12-24T02:18:57.638Z,101901.42
2018-12-24T02:22:01.037Z,101899.09
2018-12-24T02:25:04.527Z,101901.16
2018-12-24T02:28:07.961Z,101912.25
2018-12-24T02:31:11.444Z,101926.67
2018-12-24T02:34:15.099Z,101921.03
2018-12-24T02:37:18.653Z,101925.99
2018-12-24T02:40:21.978Z,101927.60
2018-12-24T02:43:26.564Z,101925.15
2018-12-24T02:46:30.089Z,101932.76
2018-12-24T02:49:33.641Z,101952.04
2018-12-24T02:52:37.220Z,101973.56
2018-12-24T02:55:40.810Z,101992.58
2018-12-24T02:58:44.215Z,102004.35
2018-12-24T03:01:47.727Z,102023.20
2018-12-24T03:04:51.258Z,102016.24
2018-12-24T03:07:54.691Z,102018.36
2018-12-24T03:10:58.224Z,102040.23
2018-12-24T03:14:01.724Z,102060.04
2018-12-24T03:17:05.119Z,102051.07
2018-12-24T03:20:08.609Z,102044.77
2018-12-24T03:23:12.108Z,102052.85
2018-12-24T03:26:15.679Z,102075.26
2018-12-24T03:29:19.236Z,102105.17
2018-12-24T03:32:22.785Z,102116.48
2018-12-24T03:35:26.317Z,102103.01
2018-12-24T03:38:29.949Z,102123.68
2018-12-24T03:41:33.488Z,102139.89
2018-12-24T03:44:37.061Z,102152.13
2018-12-24T03:47:40.550Z,102163.37
2018-12-24T03:50:43.978Z,102171.72
2018-12-24T03:53:47.455Z,102177.63
2018-12-24T03:56:50.882Z,102183.16
2018-12-24T03:59:54.388Z,102203.94
2018-12-24T04:02:57.750Z,102215.11
2018-12-24T04:06:01.360Z,102218.30
2018-12-24T04:09:06.024Z,102223.44
2018-12-24T04:12:09.364Z,102234.77
2018-12-24T04:15:12.777Z,102252.37
2018-12-24T04:18:16.357Z,102268.62
2018-12-24T04:21:19.928Z,102268.12
2018-12-24T04:24:23.445Z,102294.48
2018-12-24T04:27:26.937Z,102298.87
2018-12-24T04:30:30.543Z,102311.27
2018-12-24T04:33:34.018Z,102307.54
2018-12-24T04:36:37.651Z,102316.09
2018-12-24T04:39:41.225Z,102334.38
2018-12-24T04:42:44.616Z,102344.42
2018-12-24T04:45:48.123Z,102352.51
2018-12-24T04:48:51.482Z,102361.99
2018-12-24T04:51:55.043Z,102370.80
2018-12-24T04:54:58.400Z,102391.66
2018-12-24T04:58:02.719Z,102398.37
2018-12-24T05:01:06.155Z,102413.59
2018-12-24T05:04:09.514Z,102431.18
2018-12-24T05:07:12.935Z,102434.91
2018-12-24T05:10:16.441Z,102462.87
2018-12-24T05:13:19.812Z,102472.09
2018-12-24T05:16:23.330Z,102473.11
2018-12-24T05:19:26.833Z,102479.15
2018-12-24T05:22:30.351Z,102490.17
2018-12-24T05:25:33.861Z,102500.56
2018-12-24T05:28:37.240Z,102499.61
2018-12-24T05:31:40.757Z,102521.59
2018-12-24T05:34:44.260Z,102527.68
2018-12-24T05:37:47.970Z,102529.85
2018-12-24T05:40:51.470Z,102546.80
2018-12-24T05:43:54.953Z,102548.25
2018-12-24T05:46:58.470Z,102559.10
2018-12-24T05:50:01.879Z,102572.47
2018-12-24T05:53:05.278Z,102583.37
2018-12-24T05:56:08.673Z,102595.76
2018-12-24T05:59:12.153Z,102611.96
2018-12-24T06:02:15.653Z,102616.56
2018-12-24T06:05:19.085Z,102630.66
2018-12-24T06:08:22.792Z,102640.72
2018-12-24T06:11:26.178Z,102648.42
2018-12-24T06:14:29.676Z,102657.22
2018-12-24T06:17:33.192Z,102669.25
2018-12-24T06:20:37.781Z,102669.79
2018-12-24T06:23:40.178Z,102680.14
2018-12-24T06:26:43.686Z,102690.89
2018-12-24T06:29:47.305Z,102701.52
2018-12-24T06:32:50.891Z,102712.19
2018-12-24T06:35:54.486Z,102731.97
2018-12-24T06:38:58.139Z,102739.37
2018-12-24T06:42:01.697Z,102752.65
2018-12-24T06:45:05.349Z,102761.72
2018-12-24T06:48:08.791Z,102775.01
2018-12-24T06:51:12.301Z,102775.40
2018-12-24T06:54:15.711Z,102783.55
2018-12-24T06:57:19.244Z,102797.72
2018-12-24T07:00:22.741Z,102809.68
2018-12-24T07:03:26.323Z,102819.61
2018-12-24T07:06:29.832Z,102821.46
2018-12-24T07:09:33.432Z,102831.83
2018-12-24T07:12:37.045Z,102839.94
2018-12-24T07:15:40.689Z,102840.51
2018-12-24T07:18:44.171Z,102853.14
2018-12-24T07:21:47.758Z,102860.40
2018-12-24T07:24:51.385Z,102859.94
2018-12-24T07:27:54.969Z,102872.65
2018-12-24T07:30:58.468Z,102879.20
2018-12-24T07:34:02.075Z,102877.57
2018-12-24T07:37:05.674Z,102879.50
2018-12-24T07:40:09.219Z,102886.24
2018-12-24T07:43:12.786Z,102885.56
2018-12-24T07:46:16.287Z,102900.48
2018-12-24T07:49:19.839Z,102906.83
2018-12-24T07:52:23.393Z,102925.00
2018-12-24T07:55:27.007Z,102925.05
2018-12-24T07:58:30.643Z,102931.14
2018-12-24T08:01:34.176Z,102936.45
2018-12-24T08:04:37.713Z,102948.68
2018-12-24T08:07:41.314Z,102953.36
2018-12-24T08:10:44.932Z,102957.46
2018-12-24T08:13:48.417Z,102963.08
2018-12-24T08:16:52.020Z,102964.30
2018-12-24T08:19:55.670Z,102971.31
2018-12-24T08:22:59.147Z,102972.07
2018-12-24T08:26:02.624Z,102976.60
2018-12-24T08:29:06.152Z,102978.80
2018-12-24T08:32:11.521Z,102975.25
2018-12-24T08:35:13.361Z,102975.57
2018-12-24T08:38:17.134Z,102980.22
2018-12-24T08:41:20.639Z,102982.98
2018-12-24T08:44:24.207Z,102990.99
2018-12-24T08:47:27.756Z,102999.60
2018-12-24T08:50:31.199Z,103004.52
2018-12-24T08:53:34.767Z,103010.04
2018-12-24T08:56:38.155Z,103014.89
2018-12-24T08:59:41.722Z,103021.27
2018-12-24T09:02:45.318Z,103025.60
2018-12-24T09:05:48.859Z,103030.93
2018-12-24T09:08:52.362Z,103035.82
2018-12-24T09:11:56.013Z,103043.92
2018-12-24T09:14:59.613Z,103049.94
2018-12-24T09:18:03.182Z,103054.61
2018-12-24T09:21:06.723Z,103050.86
2018-12-24T09:24:10.126Z,103042.81
2018-12-24T09:27:13.598Z,103048.04
2018-12-24T09:30:19.366Z,103056.53
2018-12-24T09:33:22.846Z,103057.17
2018-12-24T09:36:26.271Z,103069.57
2018-12-24T09:39:30.004Z,103074.34
2018-12-24T09:42:33.497Z,103083.38
2018-12-24T09:45:36.968Z,103097.16
2018-12-24T09:48:40.513Z,103103.52
2018-12-24T09:51:44.004Z,103111.07
2018-12-24T09:54:47.556Z,103116.70
2018-12-24T09:57:51.122Z,103109.84
2018-12-24T10:00:54.768Z,103109.53
2018-12-24T10:04:03.011Z,103107.37
2018-12-24T10:07:19.945Z,103112.13
2018-12-24T10:10:23.732Z,103120.23
2018-12-24T10:13:28.599Z,103118.77
2018-12-24T10:16:31.982Z,103114.21
2018-12-24T10:19:35.611Z,103117.31
2018-12-24T10:22:39.057Z,103115.58
2018-12-24T10:25:42.579Z,103113.77
2018-12-24T10:28:46.050Z,103111.33
2018-12-24T10:31:49.598Z,103110.23
2018-12-24T10:34:54.081Z,103106.64
2018-12-24T10:37:57.601Z,103112.33
2018-12-24T10:41:05.320Z,103116.37
2018-12-24T10:44:08.782Z,103121.43
2018-12-24T10:47:12.335Z,103128.57
2018-12-24T10:50:15.712Z,103128.24
2018-12-24T10:53:19.284Z,103126.84
2018-12-24T10:56:22.812Z,103127.12
2018-12-24T10:59:26.242Z,103131.29
2018-12-24T11:02:29.905Z,103126.70
2018-12-24T11:05:33.432Z,103133.93
2018-12-24T11:08:36.914Z,103137.00
2018-12-24T11:11:40.328Z,103138.25
2018-12-24T11:14:43.851Z,103146.20
2018-12-24T11:17:47.339Z,103151.84
2018-12-24T11:20:50.847Z,103153.24
2018-12-24T11:23:54.332Z,103165.72
2018-12-24T11:26:57.835Z,103171.45
2018-12-24T11:30:02.259Z,103170.45
2018-12-24T11:33:05.881Z,103161.95
2018-12-24T11:36:09.403Z,103166.31
2018-12-24T11:39:13.231Z,103160.50
2018-12-24T11:42:16.710Z,103159.30
2018-12-24T11:45:20.323Z,103159.30
2018-12-24T11:48:23.801Z,103161.44
2018-12-24T11:51:27.436Z,103164.82
2018-12-24T11:54:30.886Z,103171.69
2018-12-24T11:57:34.514Z,103175.54
2018-12-24T12:00:39.002Z,103181.37
2018-12-24T12:03:42.553Z,103180.96
2018-12-24T12:06:46.157Z,103177.15
2018-12-24T12:09:49.774Z,103182.00
2018-12-24T12:12:53.414Z,103175.84
2018-12-24T12:15:58.968Z,103176.60
2018-12-24T12:19:02.486Z,103181.87
2018-12-24T12:22:06.022Z,103191.63
2018-12-24T12:25:09.615Z,103193.64
2018-12-24T12:28:13.336Z,103195.47
2018-12-24T12:31:17.887Z,103193.43
2018-12-24T12:34:22.544Z,103194.14
2018-12-24T12:37:25.998Z,103196.14
2018-12-24T12:40:29.599Z,103191.97
2018-12-24T12:43:33.489Z,103202.93
2018-12-24T12:46:37.131Z,103209.64
2018-12-24T12:49:40.674Z,103221.88
2018-12-24T12:52:44.226Z,103220.69
2018-12-24T12:55:47.906Z,103229.76
2018-12-24T12:58:51.309Z,103233.44
2018-12-24T13:01:54.962Z,103251.81
2018-12-24T13:04:58.441Z,103256.63
2018-12-24T13:08:02.146Z,103267.79
2018-12-24T13:11:05.635Z,103266.41
2018-12-24T13:14:09.263Z,103272.71
2018-12-24T13:17:12.962Z,103274.71
2018-12-24T13:20:24.813Z,103282.87
2018-12-24T13:23:20.249Z,103278.55
2018-12-24T13:26:23.982Z,103283.47
2018-12-24T13:29:27.734Z,103288.08
2018-12-24T13:32:31.350Z,103290.92
2018-12-24T13:35:34.858Z,103281.42
2018-12-24T13:38:38.495Z,103288.53
2018-12-24T13:41:42.099Z,103287.72
2018-12-24T13:44:45.669Z,103290.19
2018-12-24T13:47:49.213Z,103295.71
2018-12-24T13:50:52.735Z,103303.23
2018-12-24T13:53:56.418Z,103299.66
2018-12-24T13:57:00.110Z,103298.29
2018-12-24T14:00:03.587Z,103302.37
2018-12-24T14:03:07.257Z,103309.68
2018-12-24T14:06:11.125Z,103316.83
2018-12-24T14:09:14.941Z,103327.24
2018-12-24T14:12:18.519Z,103337.06
2018-12-24T14:15:22.514Z,103330.20
2018-12-24T14:18:26.238Z,103336.73
2018-12-24T14:21:29.887Z,103345.04
2018-12-24T14:24:34.423Z,103349.50
2018-12-24T14:27:38.058Z,103346.01
2018-12-24T14:30:41.660Z,103345.50
2018-12-24T14:33:45.336Z,103355.90
2018-12-24T14:36:49.033Z,103355.72
2018-12-24T14:39:52.351Z,103358.96
2018-12-24T14:42:55.805Z,103363.80
2018-12-24T14:45:59.296Z,103362.85
2018-12-24T14:49:02.975Z,103373.47
2018-12-24T14:52:06.395Z,103371.09
2018-12-24T14:55:09.864Z,103371.30
2018-12-24T14:58:13.450Z,103380.55
2018-12-24T15:01:16.978Z,103391.20
2018-12-24T15:04:20.650Z,103394.80
2018-12-24T15:07:24.185Z,103402.76
2018-12-24T15:10:28.284Z,103407.06
2018-12-24T15:13:31.708Z,103415.92
2018-12-24T15:16:35.957Z,103420.21
2018-12-24T15:19:38.961Z,103438.49
2018-12-24T15:22:42.414Z,103447.98
2018-12-24T15:25:46.066Z,103457.03
2018-12-24T15:28:49.649Z,103458.83
2018-12-24T15:31:53.284Z,103459.03
2018-12-24T15:34:56.902Z,103456.72
2018-12-24T15:38:00.339Z,103459.26
2018-12-24T15:41:03.744Z,103461.52
2018-12-24T15:44:07.204Z,103459.82
2018-12-24T15:47:10.591Z,103468.89
2018-12-24T15:50:14.146Z,103471.08
2018-12-24T15:53:17.642Z,103474.68
2018-12-24T15:56:21.073Z,103471.53
2018-12-24T15:59:24.522Z,103477.17
2018-12-24T16:02:27.947Z,103479.48
2018-12-24T16:05:31.379Z,103486.00
2018-12-24T16:08:34.933Z,103487.00
2018-12-24T16:11:38.534Z,103493.27
2018-12-24T16:14:42.016Z,103490.24
2018-12-24T16:17:46.760Z,103499.04
2018-12-24T16:20:50.262Z,103497.63
2018-12-24T16:23:53.947Z,103505.73
2018-12-24T16:26:58.463Z,103506.01
2018-12-24T16:30:01.984Z,103512.78
2018-12-24T16:33:05.357Z,103512.15
2018-12-24T16:36:08.901Z,103520.23
2018-12-24T16:39:13.637Z,103521.11
2018-12-24T16:42:17.095Z,103533.86
2018-12-24T16:45:20.566Z,103541.39
2018-12-24T16:48:24.108Z,103540.83
2018-12-24T16:51:28.125Z,103547.83
2018-12-24T16:54:31.860Z,103549.34
2018-12-24T16:57:35.550Z,103559.89
2018-12-24T17:00:39.145Z,103564.47
2018-12-24T17:03:42.807Z,103562.18
2018-12-24T17:06:46.294Z,103570.79
2018-12-24T17:09:49.859Z,103571.49
2018-12-24T17:12:53.749Z,103573.54
2018-12-24T17:15:57.265Z,103572.88
2018-12-24T17:19:00.806Z,103583.54
2018-12-24T17:22:05.323Z,103580.24
2018-12-24T17:25:08.959Z,103593.86
2018-12-24T17:28:12.951Z,103604.76
2018-12-24T17:31:16.550Z,103608.45
2018-12-24T17:34:21.399Z,103608.98
2018-12-24T17:37:24.902Z,103610.95
2018-12-24T17:40:28.508Z,103617.83
2018-12-24T17:43:32.034Z,103612.64
2018-12-24T17:46:35.582Z,103618.70
2018-12-24T17:49:39.180Z,103632.91
2018-12-24T17:52:42.749Z,103636.11
2018-12-24T17:55:46.270Z,103635.89
2018-12-24T17:58:49.864Z,103640.60
2018-12-24T18:01:54.001Z,103638.34
2018-12-24T18:04:57.607Z,103644.31
2018-12-24T18:08:01.391Z,103639.34
2018-12-24T18:11:05.093Z,103635.29
2018-12-24T18:14:08.532Z,103635.81
2018-12-24T18:17:12.161Z,103635.09
2018-12-24T18:20:15.804Z,103640.78
2018-12-24T18:23:19.400Z,103642.92
2018-12-24T18:26:22.908Z,103637.14
2018-12-24T18:29:26.462Z,103651.66
2018-12-24T18:32:30.813Z,103649.00
2018-12-24T18:35:34.409Z,103654.37
2018-12-24T18:38:38.039Z,103650.50
2018-12-24T18:41:41.809Z,103652.28
2018-12-24T18:44:45.439Z,103644.41
2018-12-24T18:47:48.953Z,103651.65
2018-12-24T18:50:52.563Z,103650.17
2018-12-24T18:53:56.177Z,103645.08
2018-12-24T18:56:59.638Z,103653.33
2018-12-24T19:00:03.472Z,103662.68
2018-12-24T19:03:07.053Z,103662.60
2018-12-24T19:06:10.855Z,103679.59
2018-12-24T19:09:14.465Z,103696.83
2018-12-24T19:12:18.102Z,103701.23
2018-12-24T19:15:21.700Z,103715.97
2018-12-24T19:18:26.202Z,103720.13
2018-12-24T19:21:29.802Z,103717.30
2018-12-24T19:24:33.297Z,103716.98
2018-12-24T19:27:36.915Z,103713.04
2018-12-24T19:30:40.498Z,103717.04
2018-12-24T19:33:44.036Z,103712.45
2018-12-24T19:36:47.515Z,103723.96
2018-12-24T19:39:51.159Z,103727.18
2018-12-24T19:42:54.793Z,103745.97
2018-12-24T19:45:58.195Z,103763.94
2018-12-24T19:49:01.632Z,103774.41
2018-12-24T19:52:05.259Z,103783.43
2018-12-24T19:55:08.833Z,103797.68
2018-12-24T19:58:12.245Z,103805.65
2018-12-24T20:01:15.839Z,103805.34
2018-12-24T20:04:19.346Z,103824.87
2018-12-24T20:07:22.758Z,103825.98
2018-12-24T20:10:26.172Z,103829.36
2018-12-24T20:13:29.862Z,103822.70
2018-12-24T20:16:33.230Z,103809.33
2018-12-24T20:19:36.630Z,103821.62
2018-12-24T20:22:40.184Z,103827.94
2018-12-24T20:25:46.976Z,103806.59
2018-12-24T20:28:53.670Z,103793.92
2018-12-24T20:31:58.693Z,103807.90
2018-12-24T20:35:04.591Z,103808.64
2018-12-24T20:38:08.132Z,103816.03
2018-12-24T20:41:13.965Z,103822.61
2018-12-24T20:44:20.883Z,103840.71
2018-12-24T20:47:24.966Z,103843.91
2018-12-24T20:50:29.048Z,103844.06
2018-12-24T20:53:33.868Z,103852.83
2018-12-24T20:56:37.418Z,103862.34
2018-12-24T20:59:40.947Z,103870.95
2018-12-24T21:02:52.298Z,103865.54
2018-12-24T21:05:56.237Z,103857.50
2018-12-24T21:08:59.813Z,103846.52
2018-12-24T21:12:03.777Z,103837.16
2018-12-24T21:15:07.389Z,103834.41
2018-12-24T21:18:15.046Z,103838.52
2018-12-24T21:21:14.405Z,103843.14
2018-12-24T21:24:18.105Z,103846.84
2018-12-24T21:27:21.954Z,103847.52
2018-12-24T21:30:25.843Z,103848.68
2018-12-24T21:33:29.413Z,103849.04
2018-12-24T21:36:33.852Z,103850.88
2018-12-24T21:39:37.408Z,103851.03
2018-12-24T21:42:40.877Z,103853.52
2018-12-24T21:45:44.542Z,103840.20
2018-12-24T21:48:48.363Z,103844.29
2018-12-24T21:52:02.584Z,103846.19
2018-12-24T21:55:13.720Z,103850.93
2018-12-24T21:58:28.474Z,103856.73
2018-12-24T22:01:32.329Z,103860.74
2018-12-24T22:04:35.846Z,103858.43
2018-12-24T22:07:39.336Z,103866.41
2018-12-24T22:10:43.886Z,103871.93
2018-12-24T22:13:47.493Z,103878.06
2018-12-24T22:16:51.102Z,103885.82
2018-12-24T22:19:54.765Z,103891.51
2018-12-24T22:22:58.376Z,103898.09
2018-12-24T22:26:02.300Z,103900.00
2018-12-24T22:29:05.805Z,103898.14
2018-12-24T22:32:09.346Z,103899.09
2018-12-24T22:35:12.922Z,103901.24
2018-12-24T22:38:16.392Z,103909.62
2018-12-24T22:41:20.055Z,103915.86
2018-12-24T22:44:23.588Z,103922.50
2018-12-24T22:47:27.155Z,103926.91
2018-12-24T22:50:30.757Z,103925.59
2018-12-24T22:53:34.369Z,103936.11
2018-12-24T22:56:38.073Z,103941.19
2018-12-24T22:59:41.797Z,103950.45
2018-12-24T23:02:45.407Z,103939.95
2018-12-24T23:05:48.934Z,103936.91
2018-12-24T23:08:53.468Z,103928.72
2018-12-24T23:11:57.158Z,103931.60
2018-12-24T23:15:00.732Z,103931.45
2018-12-24T23:18:04.293Z,103929.81
2018-12-24T23:21:07.796Z,103938.29
2018-12-24T23:24:11.400Z,103924.42
2018-12-24T23:27:14.905Z,103923.67
2018-12-24T23:30:18.455Z,103920.17
2018-12-24T23:33:22.038Z,103924.07
2018-12-24T23:36:25.750Z,103924.42
2018-12-24T23:39:29.322Z,103920.58
2018-12-24T23:42:32.856Z,103922.72
2018-12-24T23:45:36.435Z,103923.87
2018-12-24T23:48:40.450Z,103922.47
2018-12-24T23:51:44.058Z,103922.58
2018-12-24T23:54:47.727Z,103921.49
2018-12-24T23:57:51.273Z,103920.60
